createdAt,value
2022-10-06T00:00:53.414Z,7.95
2022-10-06T00:03:24.115Z,9.40
2022-10-06T00:08:19.553Z,9.23
2022-10-06T00:10:46.738Z,9.02
2022-10-06T00:13:13.755Z,9.10
2022-10-06T00:15:40.757Z,9.80
2022-10-06T00:18:07.783Z,9.05
2022-10-06T00:20:34.733Z,7.82
2022-10-06T00:23:01.639Z,8.77
2022-10-06T00:25:28.624Z,9.73
2022-10-06T00:27:56.021Z,9.88
2022-10-06T00:30:26.235Z,9.60
2022-10-06T00:33:02.085Z,9.80
2022-10-06T00:35:33.589Z,9.55
2022-10-06T00:38:01.519Z,9.13
2022-10-06T00:40:29.150Z,9.60
2022-10-06T00:43:01.702Z,8.55
2022-10-06T00:45:45.648Z,8.43
2022-10-06T00:48:27.862Z,9.82
2022-10-06T00:50:58.338Z,8.40
2022-10-06T00:53:28.558Z,8.98
2022-10-06T00:55:55.705Z,8.30
2022-10-06T00:58:22.671Z,8.80
2022-10-06T01:00:55.317Z,9.90
2022-10-06T01:03:35.051Z,8.52
2022-10-06T01:06:03.981Z,9.20
2022-10-06T01:08:32.778Z,8.48
2022-10-06T01:11:00.295Z,8.93
2022-10-06T01:13:28.387Z,8.77
2022-10-06T01:16:27.697Z,8.52
2022-10-06T01:18:56.282Z,8.75
2022-10-06T01:21:31.829Z,8.57
2022-10-06T01:23:58.983Z,8.93
2022-10-06T01:26:28.700Z,8.15
2022-10-06T01:28:56.398Z,8.75
2022-10-06T01:31:23.810Z,9.73
2022-10-06T01:33:55.429Z,9.02
2022-10-06T01:36:22.707Z,8.85
2022-10-06T01:38:49.632Z,8.88
2022-10-06T01:41:16.804Z,9.73
2022-10-06T01:43:43.652Z,8.18
2022-10-06T01:46:10.689Z,9.15
2022-10-06T01:48:37.810Z,8.95
2022-10-06T01:51:04.752Z,8.20
2022-10-06T01:53:31.727Z,8.52
2022-10-06T01:55:59.849Z,9.10
2022-10-06T01:58:27.280Z,8.50
2022-10-06T02:00:54.603Z,9.90
2022-10-06T02:03:21.721Z,7.93
2022-10-06T02:05:48.691Z,8.75
2022-10-06T02:08:15.664Z,8.57
2022-10-06T02:10:43.306Z,9.23
2022-10-06T02:13:10.769Z,8.93
2022-10-06T02:15:37.860Z,8.38
2022-10-06T02:18:04.813Z,8.70
2022-10-06T02:20:32.170Z,8.80
2022-10-06T02:23:02.217Z,9.40
2022-10-06T02:25:29.171Z,9.30
2022-10-06T02:27:56.115Z,8.93
2022-10-06T02:30:23.375Z,7.97
2022-10-06T02:32:50.374Z,8.55
2022-10-06T02:35:17.817Z,8.27
2022-10-06T02:37:44.801Z,8.85
2022-10-06T02:40:11.780Z,8.05
2022-10-06T02:42:39.202Z,8.82
2022-10-06T02:45:07.297Z,8.18
2022-10-06T02:47:35.973Z,7.93
2022-10-06T02:50:05.697Z,7.95
2022-10-06T02:52:34.711Z,8.13
2022-10-06T02:55:06.747Z,8.55
2022-10-06T02:57:33.731Z,8.05
2022-10-06T03:00:00.757Z,8.38
2022-10-06T03:02:30.986Z,7.78
2022-10-06T03:04:58.191Z,8.20
2022-10-06T03:07:25.337Z,7.60
2022-10-06T03:09:52.342Z,7.53
2022-10-06T03:12:19.245Z,8.65
2022-10-06T03:14:46.153Z,7.85
2022-10-06T03:17:13.104Z,7.60
2022-10-06T03:19:40.478Z,7.88
2022-10-06T03:22:07.614Z,7.75
2022-10-06T03:24:35.281Z,8.20
2022-10-06T03:27:02.231Z,7.68
2022-10-06T03:29:31.353Z,7.65
2022-10-06T03:31:59.071Z,7.80
2022-10-06T03:34:26.171Z,7.10
2022-10-06T03:36:53.341Z,7.88
2022-10-06T03:39:20.317Z,7.53
2022-10-06T03:41:47.475Z,6.80
2022-10-06T03:44:14.654Z,8.00
2022-10-06T03:46:41.780Z,8.75
2022-10-06T03:49:09.257Z,8.18
2022-10-06T03:51:39.114Z,8.23
2022-10-06T03:54:08.142Z,7.82
2022-10-06T03:56:38.085Z,8.00
2022-10-06T03:59:10.590Z,7.60
2022-10-06T04:01:40.215Z,8.85
2022-10-06T04:04:07.981Z,8.00
2022-10-06T04:06:37.420Z,8.60
2022-10-06T04:09:08.484Z,7.10
2022-10-06T04:11:39.855Z,7.95
2022-10-06T04:14:11.897Z,7.97
2022-10-06T04:16:44.759Z,8.15
2022-10-06T04:19:13.574Z,7.60
2022-10-06T04:21:42.740Z,8.10
2022-10-06T04:24:11.170Z,8.98
2022-10-06T04:26:40.941Z,8.10
2022-10-06T04:29:08.351Z,8.32
2022-10-06T04:31:37.695Z,8.43
2022-10-06T04:34:06.640Z,8.45
2022-10-06T04:36:36.932Z,7.60
2022-10-06T04:39:05.506Z,7.60
2022-10-06T04:41:35.031Z,8.00
2022-10-06T04:44:03.660Z,7.28
2022-10-06T04:46:47.160Z,7.60
2022-10-06T04:49:19.956Z,7.97
2022-10-06T04:51:49.927Z,7.85
2022-10-06T04:54:17.708Z,7.68
2022-10-06T04:56:44.667Z,7.70
2022-10-06T04:59:11.651Z,6.85
2022-10-06T05:01:38.831Z,7.05
2022-10-06T05:04:06.695Z,7.32
2022-10-06T05:06:36.515Z,6.93
2022-10-06T05:09:09.319Z,8.27
2022-10-06T05:11:36.542Z,8.38
2022-10-06T05:14:03.535Z,7.72
2022-10-06T05:16:31.787Z,7.10
2022-10-06T05:19:09.102Z,8.05
2022-10-06T05:21:36.449Z,7.80
2022-10-06T05:24:03.915Z,7.63
2022-10-06T05:26:33.393Z,7.72
2022-10-06T05:29:00.849Z,7.50
2022-10-06T05:31:33.195Z,6.72
2022-10-06T05:34:00.310Z,7.10
2022-10-06T05:36:30.126Z,7.20
2022-10-06T05:38:58.043Z,6.72
2022-10-06T05:41:29.056Z,6.50
2022-10-06T05:43:56.754Z,6.43
2022-10-06T05:46:28.800Z,6.95
2022-10-06T05:49:03.841Z,6.78
2022-10-06T05:51:32.899Z,6.40
2022-10-06T05:54:00.855Z,6.45
2022-10-06T05:56:28.887Z,6.82
2022-10-06T05:58:57.765Z,6.05
2022-10-06T06:01:33.597Z,6.00
2022-10-06T06:04:05.689Z,7.00
2022-10-06T06:06:40.865Z,7.18
2022-10-06T06:09:18.977Z,6.90
2022-10-06T06:11:50.815Z,7.13
2022-10-06T06:14:20.137Z,6.50
2022-10-06T06:16:47.266Z,6.15
2022-10-06T06:19:14.921Z,6.53
2022-10-06T06:21:42.058Z,5.75
2022-10-06T06:24:09.097Z,6.63
2022-10-06T06:26:37.685Z,6.60
2022-10-06T06:29:06.565Z,6.60
2022-10-06T06:31:35.885Z,6.13
2022-10-06T06:34:05.141Z,6.35
2022-10-06T06:36:37.443Z,6.97
2022-10-06T06:39:07.070Z,7.53
2022-10-06T06:41:38.135Z,6.65
2022-10-06T06:44:07.658Z,7.57
2022-10-06T06:49:22.913Z,7.00
2022-10-06T06:51:50.260Z,6.35
2022-10-06T06:54:17.417Z,5.45
2022-10-06T06:56:45.875Z,5.63
2022-10-06T06:59:13.560Z,5.57
2022-10-06T07:01:46.102Z,5.50
2022-10-06T07:04:15.573Z,4.90
2022-10-06T07:06:50.813Z,5.28
2022-10-06T07:09:17.754Z,5.85
2022-10-06T07:11:44.674Z,5.63
2022-10-06T07:14:12.953Z,4.72
2022-10-06T07:16:58.732Z,4.75
2022-10-06T07:19:57.969Z,5.25
2022-10-06T07:22:45.526Z,4.70
2022-10-06T07:25:25.396Z,5.20
2022-10-06T07:30:30.610Z,4.90
2022-10-06T07:32:57.610Z,4.97
2022-10-06T07:35:26.042Z,4.80
2022-10-06T07:37:55.745Z,5.05
2022-10-06T07:40:23.085Z,5.15
2022-10-06T07:42:52.469Z,4.75
2022-10-06T07:45:39.460Z,5.68
2022-10-06T07:48:10.998Z,5.10
2022-10-06T07:50:40.232Z,4.22
2022-10-06T07:53:10.322Z,4.65
2022-10-06T07:55:40.232Z,4.20
2022-10-06T07:58:25.473Z,4.47
2022-10-06T08:00:53.467Z,4.40
2022-10-06T08:03:21.301Z,5.25
2022-10-06T08:05:50.288Z,4.75
2022-10-06T08:08:17.499Z,5.07
2022-10-06T08:10:52.338Z,4.63
2022-10-06T08:13:19.273Z,4.38
2022-10-06T08:15:46.344Z,4.40
2022-10-06T08:18:33.727Z,4.68
2022-10-06T08:21:00.731Z,4.95
2022-10-06T08:23:27.711Z,4.40
2022-10-06T08:25:56.578Z,4.70
2022-10-06T08:28:24.721Z,4.00
2022-10-06T08:30:52.740Z,4.97
2022-10-06T08:33:21.442Z,4.07
2022-10-06T08:35:48.725Z,3.97
2022-10-06T08:38:15.694Z,4.30
2022-10-06T08:40:45.121Z,4.00
2022-10-06T08:43:19.267Z,4.32
2022-10-06T08:45:48.050Z,4.10
2022-10-06T08:48:20.228Z,4.20
2022-10-06T08:50:58.831Z,4.50
2022-10-06T08:54:18.275Z,4.43
2022-10-06T08:57:00.549Z,4.30
2022-10-06T08:59:27.514Z,4.40
2022-10-06T09:01:55.075Z,4.28
2022-10-06T09:04:29.657Z,3.67
2022-10-06T09:07:00.321Z,3.97
2022-10-06T09:09:36.570Z,3.80
2022-10-06T09:12:30.875Z,4.30
2022-10-06T09:15:35.388Z,3.60
2022-10-06T09:18:13.676Z,3.58
2022-10-06T09:20:47.938Z,3.80
2022-10-06T09:23:17.432Z,3.85
2022-10-06T09:25:45.150Z,3.92
2022-10-06T09:28:16.132Z,3.90
2022-10-06T09:30:43.812Z,4.32
2022-10-06T09:33:21.214Z,3.45
2022-10-06T09:36:11.598Z,3.85
2022-10-06T09:38:59.807Z,3.78
2022-10-06T09:41:37.916Z,3.90
2022-10-06T09:44:07.433Z,3.50
2022-10-06T09:46:42.122Z,3.67
2022-10-06T09:49:27.030Z,3.70
2022-10-06T09:52:15.427Z,3.50
2022-10-06T09:54:44.074Z,3.28
2022-10-06T09:57:18.002Z,3.55
2022-10-06T09:59:47.233Z,3.50
2022-10-06T10:02:37.421Z,3.15
2022-10-06T10:05:07.772Z,3.17
2022-10-06T10:07:36.682Z,3.20
2022-10-06T10:10:18.951Z,2.95
2022-10-06T10:12:52.937Z,3.28
2022-10-06T10:15:19.888Z,3.72
2022-10-06T10:17:53.582Z,3.60
2022-10-06T10:20:28.521Z,3.97
2022-10-06T10:22:58.719Z,3.17
2022-10-06T10:25:44.780Z,3.58
2022-10-06T10:28:15.613Z,3.38
2022-10-06T10:31:07.531Z,3.47
2022-10-06T10:33:54.225Z,3.47
2022-10-06T10:36:40.414Z,3.45
2022-10-06T10:39:40.246Z,3.63
2022-10-06T10:42:21.222Z,3.20
2022-10-06T10:45:01.090Z,3.60
2022-10-06T10:47:34.793Z,3.47
2022-10-06T10:50:13.205Z,3.30
2022-10-06T10:52:44.634Z,3.08
2022-10-06T10:55:18.777Z,3.25
2022-10-06T10:57:47.281Z,3.65
2022-10-06T11:00:22.195Z,3.53
2022-10-06T11:02:55.543Z,3.30
2022-10-06T11:05:29.062Z,3.13
2022-10-06T11:08:43.397Z,3.33
2022-10-06T11:11:20.208Z,3.40
2022-10-06T11:13:54.603Z,6.75
2022-10-06T11:16:46.461Z,5.00
2022-10-06T11:19:28.401Z,3.00
2022-10-06T11:22:08.575Z,3.05
2022-10-06T11:24:41.554Z,3.13
2022-10-06T11:27:45.861Z,3.47
2022-10-06T11:30:19.926Z,3.28
2022-10-06T11:33:09.374Z,3.25
2022-10-06T11:35:42.078Z,3.75
2022-10-06T11:38:42.973Z,3.25
2022-10-06T11:44:32.977Z,4.28
2022-10-06T11:47:15.051Z,3.90
2022-10-06T11:49:53.585Z,4.20
2022-10-06T11:52:20.497Z,3.80
2022-10-06T11:55:17.870Z,3.97
2022-10-06T11:58:23.402Z,3.63
2022-10-06T12:00:54.968Z,3.50
2022-10-06T12:03:33.437Z,3.67
2022-10-06T12:06:00.537Z,3.63
2022-10-06T12:08:39.493Z,4.03
2022-10-06T12:11:40.441Z,3.67
2022-10-06T12:17:19.729Z,3.35
2022-10-06T12:19:58.264Z,2.90
2022-10-06T12:22:37.590Z,3.13
2022-10-06T12:25:28.346Z,3.03
2022-10-06T12:28:29.186Z,3.80
2022-10-06T12:33:46.005Z,3.50
2022-10-06T12:36:18.401Z,2.97
2022-10-06T12:39:02.827Z,3.15
2022-10-06T12:41:59.216Z,4.60
2022-10-06T12:44:32.059Z,3.70
2022-10-06T12:47:05.034Z,3.08
2022-10-06T12:49:39.352Z,3.00
2022-10-06T12:52:14.538Z,2.88
2022-10-06T12:54:59.007Z,2.80
2022-10-06T12:57:30.913Z,2.45
2022-10-06T12:59:58.540Z,2.03
2022-10-06T13:02:29.237Z,2.35
2022-10-06T13:07:34.228Z,2.13
2022-10-06T13:10:19.707Z,2.40
2022-10-06T13:12:50.459Z,2.40
2022-10-06T13:17:56.815Z,2.30
2022-10-06T13:20:32.746Z,2.60
2022-10-06T13:23:10.219Z,2.42
2022-10-06T13:25:46.661Z,2.65
2022-10-06T13:28:28.206Z,3.05
2022-10-06T13:31:02.964Z,2.33
2022-10-06T13:33:35.554Z,2.35
2022-10-06T13:36:03.128Z,2.35
2022-10-06T13:38:35.293Z,2.30
2022-10-06T13:41:06.908Z,2.78
2022-10-06T13:43:40.854Z,2.55
2022-10-06T13:46:14.331Z,2.53
2022-10-06T13:48:51.625Z,2.40
2022-10-06T13:51:23.250Z,2.20
2022-10-06T13:53:50.676Z,2.40
2022-10-06T13:56:36.379Z,3.40
2022-10-06T13:59:23.472Z,2.88
2022-10-06T14:01:50.656Z,2.53
2022-10-06T14:04:19.382Z,2.50
2022-10-06T14:07:06.593Z,2.88
2022-10-06T14:09:36.637Z,2.90
2022-10-06T14:12:16.529Z,3.33
2022-10-06T14:14:53.367Z,2.70
2022-10-06T14:17:23.808Z,2.80
2022-10-06T14:19:51.460Z,2.63
2022-10-06T14:22:38.640Z,2.60
2022-10-06T14:25:12.459Z,2.95
2022-10-06T14:27:39.396Z,2.50
2022-10-06T14:30:07.094Z,2.30
2022-10-06T14:32:34.013Z,2.28
2022-10-06T14:35:01.816Z,2.13
2022-10-06T14:37:28.735Z,2.35
2022-10-06T14:39:56.665Z,2.00
2022-10-06T14:42:24.699Z,1.85
2022-10-06T14:44:51.650Z,1.92
2022-10-06T14:47:18.675Z,2.00
2022-10-06T14:49:45.672Z,2.50
2022-10-06T14:52:13.087Z,2.20
2022-10-06T14:54:40.187Z,1.80
2022-10-06T14:57:07.148Z,2.10
2022-10-06T14:59:34.178Z,1.80
2022-10-06T15:02:01.375Z,2.25
2022-10-06T15:04:28.562Z,2.53
2022-10-06T15:07:13.836Z,2.42
2022-10-06T15:09:40.766Z,2.40
2022-10-06T15:12:07.838Z,2.20
2022-10-06T15:14:40.059Z,1.70
2022-10-06T15:17:07.149Z,1.98
2022-10-06T15:19:34.604Z,2.28
2022-10-06T15:22:01.678Z,1.80
2022-10-06T15:24:28.637Z,1.88
2022-10-06T15:27:14.411Z,1.95
2022-10-06T15:29:41.304Z,2.15
2022-10-06T15:32:08.709Z,1.88
2022-10-06T15:34:38.058Z,2.00
2022-10-06T15:37:05.467Z,1.60
2022-10-06T15:39:36.844Z,2.13
2022-10-06T15:42:04.540Z,1.77
2022-10-06T15:44:33.801Z,2.50
2022-10-06T15:47:01.304Z,2.00
2022-10-06T15:49:38.312Z,2.60
2022-10-06T15:52:05.731Z,2.85
2022-10-06T15:54:37.919Z,2.80
2022-10-06T15:57:08.938Z,2.65
2022-10-06T15:59:36.912Z,2.42
2022-10-06T16:02:16.222Z,2.47
2022-10-06T16:04:44.374Z,2.00
2022-10-06T16:07:13.092Z,2.58
2022-10-06T16:09:43.597Z,2.38
2022-10-06T16:14:38.917Z,2.58
2022-10-06T16:17:06.854Z,2.85
2022-10-06T16:19:37.188Z,2.97
2022-10-06T16:22:05.679Z,2.80
2022-10-06T16:24:33.015Z,4.13
2022-10-06T16:27:00.483Z,5.40
2022-10-06T16:29:28.524Z,7.25
2022-10-06T16:31:56.180Z,11.23
2022-10-06T16:34:23.757Z,11.52
2022-10-06T16:36:50.695Z,9.60
2022-10-06T16:39:20.650Z,10.45
2022-10-06T16:41:48.077Z,10.17
2022-10-06T16:44:15.561Z,12.75
2022-10-06T16:46:43.285Z,14.45
2022-10-06T16:49:10.554Z,17.73
2022-10-06T16:51:42.577Z,18.52
2022-10-06T16:54:11.410Z,19.00
2022-10-06T16:56:41.363Z,22.38
2022-10-06T16:59:19.632Z,28.37
2022-10-06T17:01:48.103Z,28.05
2022-10-06T17:04:18.196Z,24.42
2022-10-06T17:06:46.370Z,21.67
2022-10-06T17:09:18.760Z,19.30
2022-10-06T17:11:48.601Z,17.63
2022-10-06T17:14:15.986Z,16.83
2022-10-06T17:16:44.509Z,18.55
2022-10-06T17:19:13.909Z,18.27
2022-10-06T17:21:46.269Z,19.05
2022-10-06T17:24:14.324Z,18.20
2022-10-06T17:26:43.742Z,22.98
2022-10-06T17:29:19.655Z,31.55
2022-10-06T17:31:48.645Z,36.97
2022-10-06T17:34:21.125Z,35.83
2022-10-06T17:36:51.532Z,36.10
2022-10-06T17:39:21.282Z,32.65
2022-10-06T17:41:50.568Z,33.00
2022-10-06T17:44:23.921Z,30.27
2022-10-06T17:46:54.007Z,31.23
2022-10-06T17:49:22.373Z,31.97
2022-10-06T17:51:51.099Z,31.60
2022-10-06T17:54:21.036Z,27.48
2022-10-06T17:56:50.906Z,30.00
2022-10-06T17:59:29.177Z,28.67
2022-10-06T18:01:57.887Z,32.85
2022-10-06T18:04:25.363Z,31.35
2022-10-06T18:06:54.421Z,32.92
2022-10-06T18:09:22.147Z,38.10
2022-10-06T18:11:54.978Z,52.67
2022-10-06T18:14:24.628Z,57.95
2022-10-06T18:16:58.028Z,127.88
2022-10-06T18:19:30.573Z,160.30
2022-10-06T18:22:00.617Z,166.52
2022-10-06T18:24:29.740Z,123.72
2022-10-06T18:26:59.062Z,113.95
2022-10-06T18:29:30.625Z,100.60
2022-10-06T18:32:15.207Z,79.88
2022-10-06T18:37:31.566Z,67.93
2022-10-06T18:39:58.683Z,64.20
2022-10-06T18:42:25.843Z,65.55
2022-10-06T18:45:11.328Z,64.50
2022-10-06T18:47:57.007Z,62.42
2022-10-06T18:50:24.068Z,66.10
2022-10-06T18:52:50.889Z,60.42
2022-10-06T18:55:17.788Z,57.75
2022-10-06T18:57:45.556Z,64.13
2022-10-06T19:00:13.202Z,75.45
2022-10-06T19:02:40.767Z,63.50
2022-10-06T19:05:09.205Z,69.78
2022-10-06T19:07:36.125Z,67.05
2022-10-06T19:10:03.068Z,65.85
2022-10-06T19:12:30.009Z,64.43
2022-10-06T19:14:58.180Z,61.67
2022-10-06T19:17:25.115Z,65.10
2022-10-06T19:19:55.616Z,71.57
2022-10-06T19:22:24.917Z,70.90
2022-10-06T19:24:52.562Z,65.93
2022-10-06T19:27:24.508Z,63.78
2022-10-06T19:29:56.941Z,59.33
2022-10-06T19:32:27.473Z,63.97
2022-10-06T19:34:59.171Z,67.20
2022-10-06T19:37:30.802Z,56.10
2022-10-06T19:39:57.946Z,60.75
2022-10-06T19:42:43.951Z,63.55
2022-10-06T19:45:12.397Z,58.92
2022-10-06T19:47:40.371Z,62.40
2022-10-06T19:50:12.080Z,56.15
2022-10-06T19:52:40.921Z,55.00
2022-10-06T19:55:08.101Z,53.63
2022-10-06T19:57:35.100Z,49.47
2022-10-06T20:00:02.325Z,53.15
2022-10-06T20:02:29.865Z,51.08
2022-10-06T20:04:57.293Z,47.47
2022-10-06T20:07:28.023Z,53.00
2022-10-06T20:12:25.047Z,40.25
2022-10-06T20:14:53.971Z,47.88
2022-10-06T20:17:21.693Z,44.85
2022-10-06T20:19:48.756Z,52.45
2022-10-06T20:22:15.877Z,50.22
2022-10-06T20:24:45.917Z,49.08
2022-10-06T20:27:12.877Z,49.95
2022-10-06T20:29:39.889Z,46.20
2022-10-06T20:32:06.884Z,50.67
2022-10-06T20:34:34.145Z,51.67
2022-10-06T20:37:03.264Z,45.88
2022-10-06T20:39:50.769Z,50.15
2022-10-06T20:42:20.028Z,44.30
2022-10-06T20:44:47.319Z,44.13
2022-10-06T20:47:14.832Z,46.25
2022-10-06T20:49:44.850Z,41.42
2022-10-06T20:52:14.870Z,38.28
2022-10-06T20:54:42.607Z,36.95
2022-10-06T20:57:09.903Z,33.33
2022-10-06T20:59:37.850Z,37.13
2022-10-06T21:02:06.474Z,34.20
2022-10-06T21:04:34.241Z,32.65
2022-10-06T21:07:04.222Z,32.92
2022-10-06T21:09:31.365Z,29.30
2022-10-06T21:11:58.557Z,30.70
2022-10-06T21:14:25.781Z,33.67
2022-10-06T21:16:53.215Z,27.58
2022-10-06T21:19:20.632Z,25.65
2022-10-06T21:21:53.695Z,32.47
2022-10-06T21:24:21.457Z,30.50
2022-10-06T21:26:49.698Z,34.75
2022-10-06T21:29:16.750Z,32.58
2022-10-06T21:31:44.742Z,32.58
2022-10-06T21:34:14.632Z,30.52
2022-10-06T21:36:43.708Z,33.30
2022-10-06T21:39:12.241Z,30.17
2022-10-06T21:41:40.141Z,31.85
2022-10-06T21:44:11.162Z,32.55
2022-10-06T21:46:41.386Z,28.55
2022-10-06T21:49:16.478Z,26.50
2022-10-06T21:51:46.177Z,25.58
2022-10-06T21:54:14.038Z,27.63
2022-10-06T21:56:41.798Z,28.38
2022-10-06T21:59:10.023Z,28.67
2022-10-06T22:01:39.818Z,36.75
2022-10-06T22:04:07.340Z,30.45
2022-10-06T22:06:36.984Z,37.30
2022-10-06T22:09:06.245Z,33.33
2022-10-06T22:11:36.459Z,27.60
2022-10-06T22:14:06.760Z,31.70
2022-10-06T22:16:35.872Z,35.85
2022-10-06T22:19:06.025Z,32.30
2022-10-06T22:21:35.758Z,29.30
2022-10-06T22:24:05.588Z,30.75
2022-10-06T22:26:34.255Z,31.35
2022-10-06T22:29:01.467Z,31.83
2022-10-06T22:31:28.996Z,30.50
2022-10-06T22:33:58.321Z,29.75
2022-10-06T22:36:27.371Z,30.75
2022-10-06T22:38:59.517Z,30.45
2022-10-06T22:41:26.873Z,24.45
2022-10-06T22:43:57.957Z,28.77
2022-10-06T22:46:26.696Z,28.05
2022-10-06T22:48:54.415Z,27.98
2022-10-06T22:51:21.614Z,26.50
2022-10-06T22:53:58.252Z,26.48
2022-10-06T22:56:26.894Z,27.70
2022-10-06T22:58:55.750Z,25.55
2022-10-06T23:01:23.182Z,28.45
2022-10-06T23:03:50.129Z,27.77
2022-10-06T23:06:18.319Z,25.55
2022-10-06T23:08:45.577Z,24.52
2022-10-06T23:11:18.764Z,26.85
2022-10-06T23:13:46.524Z,25.70
2022-10-06T23:16:15.766Z,23.35
2022-10-06T23:18:44.931Z,24.83
2022-10-06T23:21:24.372Z,27.40
2022-10-06T23:23:58.769Z,22.85
2022-10-06T23:26:26.258Z,24.45
2022-10-06T23:28:57.773Z,26.52
2022-10-06T23:31:25.402Z,25.73
2022-10-06T23:33:53.713Z,25.73
2022-10-06T23:36:20.887Z,25.55
2022-10-06T23:38:48.130Z,24.25
2022-10-06T23:41:16.002Z,27.60
2022-10-06T23:43:43.296Z,26.92
2022-10-06T23:46:10.878Z,29.65
2022-10-06T23:48:38.185Z,28.17
2022-10-06T23:51:08.246Z,27.55
2022-10-06T23:53:36.003Z,29.93
2022-10-06T23:56:04.016Z,26.33
2022-10-06T23:58:32.303Z,28.17
